createdAt,value
2023-01-08T00:02:07.175Z,98308.58
2023-01-08T00:07:14.479Z,98299.05
2023-01-08T00:12:21.908Z,98300.30
2023-01-08T00:17:29.188Z,98308.39
2023-01-08T00:22:36.085Z,98306.30
2023-01-08T00:27:43.288Z,98295.30
2023-01-08T00:32:50.588Z,98285.89
2023-01-08T00:37:57.692Z,98289.39
2023-01-08T00:43:04.781Z,98279.51
2023-01-08T00:48:11.783Z,98275.38
2023-01-08T00:53:18.558Z,98279.89
2023-01-08T00:58:25.389Z,98285.27
2023-01-08T01:03:32.923Z,98283.00
2023-01-08T01:08:39.970Z,98282.55
2023-01-08T01:13:46.782Z,98276.08
2023-01-08T01:18:55.228Z,98272.63
2023-01-08T01:24:03.178Z,98263.55
2023-01-08T01:29:10.288Z,98261.34
2023-01-08T01:34:17.227Z,98254.27
2023-01-08T01:39:24.571Z,98248.48
2023-01-08T01:44:39.633Z,98247.25
2023-01-08T01:49:51.160Z,98242.50
2023-01-08T01:54:59.089Z,98240.62
2023-01-08T02:00:09.485Z,98232.83
2023-01-08T02:05:16.257Z,98218.21
2023-01-08T02:10:28.976Z,98212.91
2023-01-08T02:15:40.707Z,98215.41
2023-01-08T02:20:49.346Z,98208.24
2023-01-08T02:26:13.037Z,98207.85
2023-01-08T02:31:21.198Z,98215.79
2023-01-08T02:36:30.854Z,98215.93
2023-01-08T02:41:40.117Z,98212.64
2023-01-08T02:46:47.058Z,98208.05
2023-01-08T02:51:55.556Z,98205.40
2023-01-08T02:57:04.496Z,98214.20
2023-01-08T03:02:12.785Z,98214.20
2023-01-08T03:07:19.939Z,98203.77
2023-01-08T03:12:32.908Z,98198.93
2023-01-08T03:17:41.522Z,98197.05
2023-01-08T03:22:49.718Z,98191.92
2023-01-08T03:27:57.485Z,98192.90
2023-01-08T03:33:04.857Z,98185.97
2023-01-08T03:38:16.054Z,98182.94
2023-01-08T03:43:23.037Z,98174.31
2023-01-08T03:48:31.167Z,98174.30
2023-01-08T03:53:38.191Z,98183.09
2023-01-08T03:58:45.480Z,98182.22
2023-01-08T04:03:52.356Z,98181.27
2023-01-08T04:08:59.575Z,98176.30
2023-01-08T04:14:06.549Z,98168.34
2023-01-08T04:19:14.685Z,98168.48
2023-01-08T04:24:21.768Z,98172.86
2023-01-08T04:29:28.697Z,98170.36
2023-01-08T04:34:35.790Z,98175.19
2023-01-08T04:39:42.588Z,98167.80
2023-01-08T04:44:49.677Z,98154.25
2023-01-08T04:49:56.749Z,98154.48
2023-01-08T04:55:04.185Z,98150.13
2023-01-08T05:00:11.998Z,98137.67
2023-01-08T05:05:19.207Z,98147.79
2023-01-08T05:10:26.173Z,98152.91
2023-01-08T05:15:33.298Z,98156.48
2023-01-08T05:20:40.177Z,98161.07
2023-01-08T05:25:47.009Z,98155.35
2023-01-08T05:30:54.529Z,98145.46
2023-01-08T05:36:01.699Z,98143.28
2023-01-08T05:41:08.920Z,98133.34
2023-01-08T05:46:15.937Z,98120.17
2023-01-08T05:51:23.175Z,98122.04
2023-01-08T05:56:30.228Z,98116.04
2023-01-08T06:01:37.427Z,98115.02
2023-01-08T06:06:44.949Z,98105.59
2023-01-08T06:11:53.491Z,98105.20
2023-01-08T06:17:00.547Z,98117.48
2023-01-08T06:22:07.428Z,98113.90
2023-01-08T06:27:14.636Z,98102.31
2023-01-08T06:32:21.628Z,98101.63
2023-01-08T06:37:28.636Z,98098.04
2023-01-08T06:42:35.578Z,98103.23
2023-01-08T06:47:42.510Z,98093.29
2023-01-08T06:52:55.749Z,98091.73
2023-01-08T06:58:02.424Z,98098.74
2023-01-08T07:03:09.686Z,98103.48
2023-01-08T07:08:17.417Z,98100.21
2023-01-08T07:13:25.348Z,98097.17
2023-01-08T07:18:32.230Z,98103.79
2023-01-08T07:23:39.478Z,98095.15
2023-01-08T07:28:46.687Z,98093.13
2023-01-08T07:33:53.627Z,98082.63
2023-01-08T07:39:00.785Z,98073.98
2023-01-08T07:44:07.787Z,98068.47
2023-01-08T07:49:14.918Z,98059.61
2023-01-08T07:54:21.725Z,98058.21
2023-01-08T07:59:28.666Z,98046.99
2023-01-08T08:04:35.559Z,98042.52
2023-01-08T08:09:42.546Z,98041.16
2023-01-08T08:14:49.433Z,98039.48
2023-01-08T08:19:56.428Z,98036.52
2023-01-08T08:25:03.315Z,98031.30
2023-01-08T08:30:11.351Z,98027.71
2023-01-08T08:35:18.395Z,98027.42
2023-01-08T08:40:25.695Z,98017.68
2023-01-08T08:45:32.733Z,98028.81
2023-01-08T08:50:40.215Z,98037.51
2023-01-08T08:55:47.690Z,98030.52
2023-01-08T09:00:55.029Z,98024.05
2023-01-08T09:06:02.426Z,98011.91
2023-01-08T09:11:09.707Z,98007.80
2023-01-08T09:16:16.997Z,98004.39
2023-01-08T09:21:24.045Z,97993.13
2023-01-08T09:26:31.147Z,97988.02
2023-01-08T09:31:37.932Z,97977.95
2023-01-08T09:36:45.134Z,97968.87
2023-01-08T09:41:52.628Z,97957.67
2023-01-08T09:46:59.933Z,97948.48
2023-01-08T09:52:07.150Z,97943.58
2023-01-08T09:57:15.370Z,97932.23
2023-01-08T10:02:23.364Z,97921.96
2023-01-08T10:07:31.656Z,97912.70
2023-01-08T10:12:38.427Z,97913.02
2023-01-08T10:17:48.142Z,97907.41
2023-01-08T10:22:55.529Z,97892.63
2023-01-08T10:28:03.282Z,97878.71
2023-01-08T10:33:13.537Z,97869.29
2023-01-08T10:38:28.596Z,97863.46
2023-01-08T10:43:36.692Z,97857.88
2023-01-08T10:48:49.130Z,97861.45
2023-01-08T10:53:56.507Z,97861.15
2023-01-08T10:59:03.644Z,97858.45
2023-01-08T11:04:23.337Z,97854.45
2023-01-08T11:09:31.888Z,97844.52
2023-01-08T11:14:40.356Z,97840.70
2023-01-08T11:19:47.428Z,97832.05
2023-01-08T11:24:55.456Z,97830.09
2023-01-08T11:30:07.875Z,97823.34
2023-01-08T11:35:24.451Z,97825.27
2023-01-08T11:40:35.797Z,97816.42
2023-01-08T11:45:52.871Z,97813.18
2023-01-08T11:51:09.640Z,97808.59
2023-01-08T11:56:22.594Z,97799.25
2023-01-08T12:01:37.001Z,97797.64
2023-01-08T12:06:49.851Z,97795.16
2023-01-08T12:12:02.447Z,97791.19
2023-01-08T12:17:23.509Z,97789.54
2023-01-08T12:22:40.694Z,97785.27
2023-01-08T12:27:57.623Z,97780.45
2023-01-08T12:33:06.775Z,97783.64
2023-01-08T12:38:15.516Z,97784.86
2023-01-08T12:43:24.727Z,97775.27
2023-01-08T12:48:32.917Z,97773.17
2023-01-08T12:53:43.459Z,97773.63
2023-01-08T12:59:07.412Z,97777.30
2023-01-08T13:04:14.634Z,97781.57
2023-01-08T13:09:24.214Z,97776.17
2023-01-08T13:14:42.312Z,97759.36
2023-01-08T13:19:54.619Z,97747.32
2023-01-08T13:25:29.492Z,97749.17
2023-01-08T13:30:38.976Z,97749.82
2023-01-08T13:35:46.148Z,97756.80
2023-01-08T13:40:57.018Z,97772.35
2023-01-08T13:46:16.221Z,97770.25
2023-01-08T13:51:42.078Z,97779.98
2023-01-08T13:56:51.771Z,97785.88
2023-01-08T14:02:01.867Z,97787.12
2023-01-08T14:07:12.852Z,97778.55
2023-01-08T14:12:22.542Z,97766.89
2023-01-08T14:17:31.448Z,97766.42
2023-01-08T14:22:38.479Z,97770.01
2023-01-08T14:27:56.219Z,97766.10
2023-01-08T14:33:03.646Z,97761.52
2023-01-08T14:38:15.711Z,97760.34
2023-01-08T14:43:23.156Z,97757.23
2023-01-08T14:48:33.832Z,97752.55
2023-01-08T14:53:43.956Z,97742.90
2023-01-08T14:58:51.308Z,97752.23
2023-01-08T15:04:08.568Z,97737.29
2023-01-08T15:09:23.939Z,97705.73
2023-01-08T15:14:31.302Z,97708.76
2023-01-08T15:19:41.707Z,97706.98
2023-01-08T15:24:54.947Z,97707.67
2023-01-08T15:30:03.971Z,97704.18
2023-01-08T15:35:17.204Z,97700.83
2023-01-08T15:40:24.238Z,97703.70
2023-01-08T15:45:32.833Z,97707.12
2023-01-08T15:50:41.239Z,97700.13
2023-01-08T15:55:48.343Z,97702.39
2023-01-08T16:00:55.823Z,97709.08
2023-01-08T16:06:03.286Z,97707.36
2023-01-08T16:11:11.153Z,97703.30
2023-01-08T16:16:18.642Z,97700.42
2023-01-08T16:21:25.796Z,97696.06
2023-01-08T16:26:32.977Z,97692.95
2023-01-08T16:31:40.262Z,97686.56
2023-01-08T16:36:47.626Z,97679.73
2023-01-08T16:41:54.516Z,97685.40
2023-01-08T16:47:01.799Z,97675.21
2023-01-08T16:52:09.701Z,97670.00
2023-01-08T16:57:16.866Z,97670.23
2023-01-08T17:02:24.567Z,97672.65
2023-01-08T17:07:31.664Z,97675.75
2023-01-08T17:12:38.596Z,97675.29
2023-01-08T17:17:45.570Z,97679.39
2023-01-08T17:22:52.557Z,97674.41
2023-01-08T17:27:59.936Z,97671.23
2023-01-08T17:33:06.947Z,97669.91
2023-01-08T17:38:13.776Z,97671.70
2023-01-08T17:43:20.547Z,97672.47
2023-01-08T17:48:27.371Z,97670.21
2023-01-08T17:53:34.387Z,97682.34
2023-01-08T17:58:41.297Z,97678.61
2023-01-08T18:03:48.634Z,97674.79
2023-01-08T18:08:55.739Z,97664.38
2023-01-08T18:14:03.700Z,97655.51
2023-01-08T18:19:10.797Z,97658.77
2023-01-08T18:24:17.709Z,97660.79
2023-01-08T18:29:24.687Z,97663.27
2023-01-08T18:34:31.619Z,97659.77
2023-01-08T18:39:38.387Z,97657.05
2023-01-08T18:44:45.178Z,97650.36
2023-01-08T18:49:53.539Z,97641.58
2023-01-08T18:55:00.776Z,97634.90
2023-01-08T19:00:08.978Z,97630.14
2023-01-08T19:05:16.143Z,97615.06
2023-01-08T19:10:23.607Z,97614.60
2023-01-08T19:15:30.658Z,97607.36
2023-01-08T19:20:37.940Z,97599.59
2023-01-08T19:25:44.958Z,97592.67
2023-01-08T19:30:57.442Z,97586.67
2023-01-08T19:36:08.988Z,97585.73
2023-01-08T19:41:33.805Z,97580.63
2023-01-08T19:46:40.665Z,97574.48
2023-01-08T19:51:47.617Z,97571.67
2023-01-08T19:56:55.267Z,97570.73
2023-01-08T20:02:02.212Z,97577.42
2023-01-08T20:07:09.324Z,97555.19
2023-01-08T20:12:16.209Z,97548.50
2023-01-08T20:17:25.496Z,97548.27
2023-01-08T20:22:32.410Z,97551.30
2023-01-08T20:27:39.506Z,97540.41
2023-01-08T20:32:46.666Z,97526.80
2023-01-08T20:37:53.798Z,97526.81
2023-01-08T20:43:00.828Z,97509.23
2023-01-08T20:48:08.379Z,97495.16
2023-01-08T20:53:15.531Z,97497.80
2023-01-08T20:58:22.468Z,97491.66
2023-01-08T21:03:29.348Z,97488.00
2023-01-08T21:08:36.396Z,97479.77
2023-01-08T21:13:43.769Z,97477.44
2023-01-08T21:18:51.060Z,97468.02
2023-01-08T21:23:58.236Z,97452.48
2023-01-08T21:29:06.620Z,97457.76
2023-01-08T21:34:14.296Z,97462.05
2023-01-08T21:39:21.158Z,97453.88
2023-01-08T21:44:46.073Z,97449.91
2023-01-08T21:49:53.236Z,97444.77
2023-01-08T21:55:00.181Z,97439.88
2023-01-08T22:00:08.048Z,97442.45
2023-01-08T22:05:15.360Z,97443.15
2023-01-08T22:10:22.456Z,97429.77
2023-01-08T22:15:29.846Z,97413.75
2023-01-08T22:20:37.040Z,97413.29
2023-01-08T22:25:43.959Z,97411.41
2023-01-08T22:30:50.907Z,97416.02
2023-01-08T22:35:58.077Z,97422.15
2023-01-08T22:41:05.658Z,97417.56
2023-01-08T22:46:15.257Z,97409.47
2023-01-08T22:51:22.589Z,97408.31
2023-01-08T22:56:29.922Z,97399.45
2023-01-08T23:01:36.940Z,97392.30
2023-01-08T23:06:43.868Z,97389.83
2023-01-08T23:11:50.830Z,97379.55
2023-01-08T23:16:58.135Z,97370.61
2023-01-08T23:22:05.309Z,97356.30
2023-01-08T23:27:12.546Z,97346.98
2023-01-08T23:32:19.623Z,97342.15
2023-01-08T23:37:26.467Z,97329.48
2023-01-08T23:42:33.512Z,97318.20
2023-01-08T23:47:40.139Z,97310.75
2023-01-08T23:52:46.927Z,97302.98
2023-01-08T23:57:53.726Z,97299.95
